Destinations Sogndal Airport

Sogndal Airport (ENSG / SOG)

Flights to Sogndal Airport

Flight number From ETE Dispatch
SPY-3101 ENAL Ålesund Airport 00:45
SPY-3102 ENBR Bergen Airport Flesland 00:30

Flights from Sogndal Airport

Flight number To ETE Dispatch
SPY-3101 ENBR Bergen Airport Flesland 00:30
SPY-3102 ENAL Ålesund Airport 00:45
About

Sogndal Airport facts

Sogndal Airport is located in Sogndal at an elevation of 497.7 meters or 1633 feet.

Currently, Speedy Airlines serves 4 flights to and from Sogndal Airport.

Detailed airport info

Route map

Weather

Current weather

METAR

METAR

Metar data retrieved Sunday, 21 July 2024 at 19:55 UTC

ENSG 211920Z VRB01KT 9999 VCSH FEW050 BKN080 20/12 Q1006 RMK WIND 3806FT 15021G31KT
Wind Temperature
1 kt 20c